sensor_id;sensor_type;location;lat;lon;timestamp;P1;durP1;ratioP1;P2;durP2;ratioP2
23432;SDS011;41331;45.412;10.992;2022-09-09T00:00:44;8.55;;;2.78;;
23432;SDS011;41331;45.412;10.992;2022-09-09T00:03:17;7.75;;;2.90;;
23432;SDS011;41331;45.412;10.992;2022-09-09T00:05:55;9.75;;;2.35;;
23432;SDS011;41331;45.412;10.992;2022-09-09T00:08:46;6.38;;;2.00;;
23432;SDS011;41331;45.412;10.992;2022-09-09T00:11:17;8.63;;;2.25;;
23432;SDS011;41331;45.412;10.992;2022-09-09T00:13:57;5.60;;;2.17;;
23432;SDS011;41331;45.412;10.992;2022-09-09T00:16:31;6.80;;;2.10;;
23432;SDS011;41331;45.412;10.992;2022-09-09T00:19:04;5.90;;;2.00;;
23432;SDS011;41331;45.412;10.992;2022-09-09T00:21:36;5.63;;;1.90;;
23432;SDS011;41331;45.412;10.992;2022-09-09T00:26:56;4.65;;;1.80;;
23432;SDS011;41331;45.412;10.992;2022-09-09T00:29:31;5.53;;;1.63;;
23432;SDS011;41331;45.412;10.992;2022-09-09T00:32:13;3.90;;;1.40;;
23432;SDS011;41331;45.412;10.992;2022-09-09T00:34:51;6.10;;;1.65;;
23432;SDS011;41331;45.412;10.992;2022-09-09T00:37:23;7.30;;;1.52;;
23432;SDS011;41331;45.412;10.992;2022-09-09T00:39:56;5.70;;;1.42;;
23432;SDS011;41331;45.412;10.992;2022-09-09T00:45:19;3.33;;;1.60;;
23432;SDS011;41331;45.412;10.992;2022-09-09T00:47:53;6.10;;;1.60;;
23432;SDS011;41331;45.412;10.992;2022-09-09T00:55:38;4.55;;;1.77;;
23432;SDS011;41331;45.412;10.992;2022-09-09T00:58:10;8.18;;;1.85;;
23432;SDS011;41331;45.412;10.992;2022-09-09T01:00:42;8.23;;;2.10;;
23432;SDS011;41331;45.412;10.992;2022-09-09T01:14:23;5.93;;;1.90;;
23432;SDS011;41331;45.412;10.992;2022-09-09T01:17:00;9.07;;;1.60;;
23432;SDS011;41331;45.412;10.992;2022-09-09T01:25:09;6.88;;;3.58;;
23432;SDS011;41331;45.412;10.992;2022-09-09T01:27:56;7.65;;;3.63;;
23432;SDS011;41331;45.412;10.992;2022-09-09T01:30:27;6.97;;;3.22;;
23432;SDS011;41331;45.412;10.992;2022-09-09T01:32:57;5.25;;;2.85;;
23432;SDS011;41331;45.412;10.992;2022-09-09T01:35:32;4.22;;;2.50;;
23432;SDS011;41331;45.412;10.992;2022-09-09T01:38:19;6.80;;;2.95;;
23432;SDS011;41331;45.412;10.992;2022-09-09T01:40:50;7.40;;;2.60;;
23432;SDS011;41331;45.412;10.992;2022-09-09T01:43:22;9.05;;;2.50;;
23432;SDS011;41331;45.412;10.992;2022-09-09T01:45:53;5.03;;;2.30;;
23432;SDS011;41331;45.412;10.992;2022-09-09T01:48:23;5.00;;;1.80;;
23432;SDS011;41331;45.412;10.992;2022-09-09T01:51:01;9.10;;;1.58;;
23432;SDS011;41331;45.412;10.992;2022-09-09T01:53:30;6.30;;;1.90;;
23432;SDS011;41331;45.412;10.992;2022-09-09T02:05:11;4.75;;;1.50;;
23432;SDS011;41331;45.412;10.992;2022-09-09T02:07:42;5.50;;;2.00;;
23432;SDS011;41331;45.412;10.992;2022-09-09T02:13:31;7.00;;;1.55;;
23432;SDS011;41331;45.412;10.992;2022-09-09T02:16:38;3.80;;;1.60;;
23432;SDS011;41331;45.412;10.992;2022-09-09T02:19:22;9.05;;;1.58;;
23432;SDS011;41331;45.412;10.992;2022-09-09T02:22:08;4.95;;;1.38;;
23432;SDS011;41331;45.412;10.992;2022-09-09T02:24:37;4.75;;;1.63;;
23432;SDS011;41331;45.412;10.992;2022-09-09T02:27:13;6.07;;;1.60;;
23432;SDS011;41331;45.412;10.992;2022-09-09T02:29:46;4.60;;;1.70;;
23432;SDS011;41331;45.412;10.992;2022-09-09T02:32:21;6.20;;;1.42;;
23432;SDS011;41331;45.412;10.992;2022-09-09T02:34:56;3.35;;;1.45;;
23432;SDS011;41331;45.412;10.992;2022-09-09T02:37:45;3.47;;;1.35;;
23432;SDS011;41331;45.412;10.992;2022-09-09T02:42:49;5.93;;;1.57;;
23432;SDS011;41331;45.412;10.992;2022-09-09T02:45:19;5.25;;;1.70;;
23432;SDS011;41331;45.412;10.992;2022-09-09T02:50:34;5.75;;;1.80;;
23432;SDS011;41331;45.412;10.992;2022-09-09T02:55:48;4.15;;;1.60;;
23432;SDS011;41331;45.412;10.992;2022-09-09T02:58:22;5.15;;;1.83;;
23432;SDS011;41331;45.412;10.992;2022-09-09T03:00:56;5.43;;;1.65;;
23432;SDS011;41331;45.412;10.992;2022-09-09T03:03:25;7.00;;;1.20;;
23432;SDS011;41331;45.412;10.992;2022-09-09T03:05:55;3.85;;;1.42;;
23432;SDS011;41331;45.412;10.992;2022-09-09T03:08:25;6.13;;;1.52;;
23432;SDS011;41331;45.412;10.992;2022-09-09T03:10:55;4.18;;;1.80;;
23432;SDS011;41331;45.412;10.992;2022-09-09T03:13:27;4.57;;;1.50;;
23432;SDS011;41331;45.412;10.992;2022-09-09T03:15:57;4.75;;;1.70;;
23432;SDS011;41331;45.412;10.992;2022-09-09T03:18:24;4.20;;;1.60;;
23432;SDS011;41331;45.412;10.992;2022-09-09T03:20:53;3.40;;;1.60;;
23432;SDS011;41331;45.412;10.992;2022-09-09T03:23:22;4.63;;;1.58;;
23432;SDS011;41331;45.412;10.992;2022-09-09T03:25:50;3.83;;;1.90;;
23432;SDS011;41331;45.412;10.992;2022-09-09T03:28:25;5.50;;;1.60;;
23432;SDS011;41331;45.412;10.992;2022-09-09T03:31:00;5.93;;;1.40;;
23432;SDS011;41331;45.412;10.992;2022-09-09T03:33:33;4.40;;;1.60;;
23432;SDS011;41331;45.412;10.992;2022-09-09T03:36:01;6.45;;;1.95;;
23432;SDS011;41331;45.412;10.992;2022-09-09T03:38:29;3.25;;;1.77;;
23432;SDS011;41331;45.412;10.992;2022-09-09T03:40:56;5.68;;;2.55;;
23432;SDS011;41331;45.412;10.992;2022-09-09T03:43:27;5.85;;;2.10;;
23432;SDS011;41331;45.412;10.992;2022-09-09T03:45:56;5.97;;;2.03;;
23432;SDS011;41331;45.412;10.992;2022-09-09T03:48:27;4.18;;;1.80;;
23432;SDS011;41331;45.412;10.992;2022-09-09T03:50:56;6.70;;;2.47;;
23432;SDS011;41331;45.412;10.992;2022-09-09T03:53:25;8.00;;;2.20;;
23432;SDS011;41331;45.412;10.992;2022-09-09T03:55:53;6.63;;;2.03;;
23432;SDS011;41331;45.412;10.992;2022-09-09T03:58:25;3.92;;;1.95;;
23432;SDS011;41331;45.412;10.992;2022-09-09T04:00:59;6.15;;;2.10;;
23432;SDS011;41331;45.412;10.992;2022-09-09T04:03:29;4.03;;;1.85;;
23432;SDS011;41331;45.412;10.992;2022-09-09T04:05:58;4.60;;;2.00;;
23432;SDS011;41331;45.412;10.992;2022-09-09T04:08:29;3.97;;;1.60;;
23432;SDS011;41331;45.412;10.992;2022-09-09T04:11:00;4.65;;;2.08;;
23432;SDS011;41331;45.412;10.992;2022-09-09T04:13:35;5.57;;;1.85;;
23432;SDS011;41331;45.412;10.992;2022-09-09T04:16:11;8.55;;;2.28;;
23432;SDS011;41331;45.412;10.992;2022-09-09T04:18:43;5.15;;;2.13;;
23432;SDS011;41331;45.412;10.992;2022-09-09T04:21:11;5.57;;;2.05;;
23432;SDS011;41331;45.412;10.992;2022-09-09T04:23:40;5.55;;;2.22;;
23432;SDS011;41331;45.412;10.992;2022-09-09T04:26:08;7.70;;;2.40;;
23432;SDS011;41331;45.412;10.992;2022-09-09T04:28:37;3.97;;;2.20;;
23432;SDS011;41331;45.412;10.992;2022-09-09T04:31:15;5.15;;;2.00;;
23432;SDS011;41331;45.412;10.992;2022-09-09T04:33:46;6.45;;;2.17;;
23432;SDS011;41331;45.412;10.992;2022-09-09T04:36:15;5.28;;;2.40;;
23432;SDS011;41331;45.412;10.992;2022-09-09T04:38:47;4.32;;;2.08;;
23432;SDS011;41331;45.412;10.992;2022-09-09T04:41:16;4.75;;;2.20;;
23432;SDS011;41331;45.412;10.992;2022-09-09T04:43:48;5.78;;;3.05;;
23432;SDS011;41331;45.412;10.992;2022-09-09T04:46:16;7.63;;;3.17;;
23432;SDS011;41331;45.412;10.992;2022-09-09T04:48:44;7.13;;;2.70;;
23432;SDS011;41331;45.412;10.992;2022-09-09T04:51:13;6.07;;;2.50;;
23432;SDS011;41331;45.412;10.992;2022-09-09T04:53:43;6.78;;;2.40;;
23432;SDS011;41331;45.412;10.992;2022-09-09T04:56:13;7.93;;;2.90;;
23432;SDS011;41331;45.412;10.992;2022-09-09T04:58:51;8.30;;;3.00;;
23432;SDS011;41331;45.412;10.992;2022-09-09T05:01:22;7.65;;;2.83;;
23432;SDS011;41331;45.412;10.992;2022-09-09T05:03:54;8.15;;;3.45;;
23432;SDS011;41331;45.412;10.992;2022-09-09T05:06:22;6.88;;;2.97;;
23432;SDS011;41331;45.412;10.992;2022-09-09T05:08:54;8.07;;;3.63;;
23432;SDS011;41331;45.412;10.992;2022-09-09T05:11:26;5.13;;;2.78;;
23432;SDS011;41331;45.412;10.992;2022-09-09T05:16:35;9.13;;;2.42;;
23432;SDS011;41331;45.412;10.992;2022-09-09T05:19:02;5.28;;;2.42;;
23432;SDS011;41331;45.412;10.992;2022-09-09T05:21:41;6.13;;;2.20;;
23432;SDS011;41331;45.412;10.992;2022-09-09T05:24:11;6.15;;;2.63;;
23432;SDS011;41331;45.412;10.992;2022-09-09T05:26:39;8.10;;;2.45;;
23432;SDS011;41331;45.412;10.992;2022-09-09T05:29:07;7.75;;;2.17;;
23432;SDS011;41331;45.412;10.992;2022-09-09T05:31:36;5.88;;;2.20;;
23432;SDS011;41331;45.412;10.992;2022-09-09T05:34:08;5.78;;;2.30;;
23432;SDS011;41331;45.412;10.992;2022-09-09T05:36:36;5.80;;;2.10;;
23432;SDS011;41331;45.412;10.992;2022-09-09T05:39:03;5.50;;;2.15;;
23432;SDS011;41331;45.412;10.992;2022-09-09T05:41:32;6.32;;;2.13;;
23432;SDS011;41331;45.412;10.992;2022-09-09T05:44:03;7.70;;;2.10;;
23432;SDS011;41331;45.412;10.992;2022-09-09T05:46:34;8.00;;;2.30;;
23432;SDS011;41331;45.412;10.992;2022-09-09T05:49:02;5.03;;;2.10;;
23432;SDS011;41331;45.412;10.992;2022-09-09T05:51:33;4.60;;;2.17;;
23432;SDS011;41331;45.412;10.992;2022-09-09T05:54:08;8.68;;;2.45;;
23432;SDS011;41331;45.412;10.992;2022-09-09T05:56:41;7.95;;;2.33;;
23432;SDS011;41331;45.412;10.992;2022-09-09T05:59:09;5.95;;;2.25;;
23432;SDS011;41331;45.412;10.992;2022-09-09T06:01:38;5.43;;;2.15;;
23432;SDS011;41331;45.412;10.992;2022-09-09T06:04:18;5.18;;;2.15;;
23432;SDS011;41331;45.412;10.992;2022-09-09T06:06:52;5.45;;;2.17;;
23432;SDS011;41331;45.412;10.992;2022-09-09T06:09:21;8.90;;;2.60;;
23432;SDS011;41331;45.412;10.992;2022-09-09T06:11:49;11.95;;;2.80;;
23432;SDS011;41331;45.412;10.992;2022-09-09T06:14:18;8.02;;;2.60;;
23432;SDS011;41331;45.412;10.992;2022-09-09T06:16:47;9.02;;;2.60;;
23432;SDS011;41331;45.412;10.992;2022-09-09T06:19:21;8.00;;;2.65;;
23432;SDS011;41331;45.412;10.992;2022-09-09T06:21:51;7.15;;;2.28;;
23432;SDS011;41331;45.412;10.992;2022-09-09T06:24:18;9.63;;;2.55;;
23432;SDS011;41331;45.412;10.992;2022-09-09T06:26:47;4.60;;;2.13;;
23432;SDS011;41331;45.412;10.992;2022-09-09T06:29:27;5.07;;;1.75;;
23432;SDS011;41331;45.412;10.992;2022-09-09T06:31:55;7.00;;;1.92;;
23432;SDS011;41331;45.412;10.992;2022-09-09T06:34:25;8.40;;;1.88;;
23432;SDS011;41331;45.412;10.992;2022-09-09T06:36:55;6.75;;;1.98;;
23432;SDS011;41331;45.412;10.992;2022-09-09T06:39:25;5.97;;;1.73;;
23432;SDS011;41331;45.412;10.992;2022-09-09T06:41:54;5.53;;;1.40;;
23432;SDS011;41331;45.412;10.992;2022-09-09T06:44:40;3.63;;;1.20;;
23432;SDS011;41331;45.412;10.992;2022-09-09T06:47:12;8.02;;;1.48;;
23432;SDS011;41331;45.412;10.992;2022-09-09T06:49:41;4.68;;;1.50;;
23432;SDS011;41331;45.412;10.992;2022-09-09T06:52:14;4.50;;;1.35;;
23432;SDS011;41331;45.412;10.992;2022-09-09T06:54:41;5.68;;;1.67;;
23432;SDS011;41331;45.412;10.992;2022-09-09T06:57:09;6.97;;;1.52;;
23432;SDS011;41331;45.412;10.992;2022-09-09T06:59:57;5.78;;;1.70;;
23432;SDS011;41331;45.412;10.992;2022-09-09T07:02:24;4.55;;;1.23;;
23432;SDS011;41331;45.412;10.992;2022-09-09T07:04:53;4.20;;;0.95;;
23432;SDS011;41331;45.412;10.992;2022-09-09T07:07:20;4.35;;;1.15;;
23432;SDS011;41331;45.412;10.992;2022-09-09T07:09:48;6.72;;;1.63;;
23432;SDS011;41331;45.412;10.992;2022-09-09T07:12:16;5.18;;;1.45;;
23432;SDS011;41331;45.412;10.992;2022-09-09T07:14:50;5.60;;;1.38;;
23432;SDS011;41331;45.412;10.992;2022-09-09T07:17:19;7.05;;;1.50;;
23432;SDS011;41331;45.412;10.992;2022-09-09T07:19:47;6.78;;;1.33;;
23432;SDS011;41331;45.412;10.992;2022-09-09T07:22:16;4.47;;;1.20;;
23432;SDS011;41331;45.412;10.992;2022-09-09T07:24:45;8.38;;;1.55;;
23432;SDS011;41331;45.412;10.992;2022-09-09T07:27:14;3.70;;;1.30;;
23432;SDS011;41331;45.412;10.992;2022-09-09T07:29:42;6.88;;;1.45;;
23432;SDS011;41331;45.412;10.992;2022-09-09T07:32:10;3.85;;;1.30;;
23432;SDS011;41331;45.412;10.992;2022-09-09T07:34:38;5.57;;;1.38;;
23432;SDS011;41331;45.412;10.992;2022-09-09T07:37:05;7.25;;;1.48;;
23432;SDS011;41331;45.412;10.992;2022-09-09T07:39:34;5.90;;;1.67;;
23432;SDS011;41331;45.412;10.992;2022-09-09T07:42:01;5.70;;;1.60;;
23432;SDS011;41331;45.412;10.992;2022-09-09T07:44:29;4.05;;;1.45;;
23432;SDS011;41331;45.412;10.992;2022-09-09T07:47:10;4.32;;;1.27;;
23432;SDS011;41331;45.412;10.992;2022-09-09T07:49:46;5.03;;;1.50;;
23432;SDS011;41331;45.412;10.992;2022-09-09T07:52:20;4.78;;;1.40;;
23432;SDS011;41331;45.412;10.992;2022-09-09T07:54:53;10.60;;;1.80;;
23432;SDS011;41331;45.412;10.992;2022-09-09T07:57:20;6.95;;;1.58;;
23432;SDS011;41331;45.412;10.992;2022-09-09T07:59:49;3.92;;;1.15;;
23432;SDS011;41331;45.412;10.992;2022-09-09T08:02:17;3.63;;;1.50;;
23432;SDS011;41331;45.412;10.992;2022-09-09T08:04:45;4.65;;;1.65;;
23432;SDS011;41331;45.412;10.992;2022-09-09T08:07:14;6.00;;;1.52;;
23432;SDS011;41331;45.412;10.992;2022-09-09T08:09:50;5.07;;;1.30;;
23432;SDS011;41331;45.412;10.992;2022-09-09T08:12:21;9.52;;;1.58;;
23432;SDS011;41331;45.412;10.992;2022-09-09T08:14:50;6.65;;;1.40;;
23432;SDS011;41331;45.412;10.992;2022-09-09T08:17:22;3.83;;;1.30;;
23432;SDS011;41331;45.412;10.992;2022-09-09T08:19:50;6.07;;;2.05;;
23432;SDS011;41331;45.412;10.992;2022-09-09T08:22:21;6.63;;;1.48;;
23432;SDS011;41331;45.412;10.992;2022-09-09T08:24:49;4.55;;;1.40;;
23432;SDS011;41331;45.412;10.992;2022-09-09T08:27:18;5.03;;;1.85;;
23432;SDS011;41331;45.412;10.992;2022-09-09T08:29:46;3.95;;;1.30;;
23432;SDS011;41331;45.412;10.992;2022-09-09T08:32:14;6.13;;;1.50;;
23432;SDS011;41331;45.412;10.992;2022-09-09T08:34:41;2.83;;;1.15;;
23432;SDS011;41331;45.412;10.992;2022-09-09T08:37:16;5.18;;;1.60;;
23432;SDS011;41331;45.412;10.992;2022-09-09T08:39:44;7.38;;;1.75;;
23432;SDS011;41331;45.412;10.992;2022-09-09T08:42:21;8.05;;;2.00;;
23432;SDS011;41331;45.412;10.992;2022-09-09T08:45:05;5.78;;;1.42;;
23432;SDS011;41331;45.412;10.992;2022-09-09T08:47:49;4.43;;;1.60;;
23432;SDS011;41331;45.412;10.992;2022-09-09T08:50:25;4.07;;;1.30;;
23432;SDS011;41331;45.412;10.992;2022-09-09T08:58:33;3.65;;;1.48;;
23432;SDS011;41331;45.412;10.992;2022-09-09T09:06:56;5.93;;;1.23;;
23432;SDS011;41331;45.412;10.992;2022-09-09T09:09:36;3.42;;;1.15;;
23432;SDS011;41331;45.412;10.992;2022-09-09T09:12:20;4.63;;;1.35;;
23432;SDS011;41331;45.412;10.992;2022-09-09T09:14:51;6.80;;;1.40;;
23432;SDS011;41331;45.412;10.992;2022-09-09T09:17:20;5.28;;;1.50;;
23432;SDS011;41331;45.412;10.992;2022-09-09T09:19:51;6.32;;;1.30;;
23432;SDS011;41331;45.412;10.992;2022-09-09T09:22:41;3.17;;;1.20;;
23432;SDS011;41331;45.412;10.992;2022-09-09T09:25:18;5.40;;;1.27;;
23432;SDS011;41331;45.412;10.992;2022-09-09T09:27:59;4.78;;;1.23;;
23432;SDS011;41331;45.412;10.992;2022-09-09T09:30:41;5.95;;;1.67;;
23432;SDS011;41331;45.412;10.992;2022-09-09T09:33:24;5.45;;;1.70;;
23432;SDS011;41331;45.412;10.992;2022-09-09T09:35:54;5.07;;;1.60;;
23432;SDS011;41331;45.412;10.992;2022-09-09T09:38:23;6.93;;;1.45;;
23432;SDS011;41331;45.412;10.992;2022-09-09T09:41:12;6.10;;;1.50;;
23432;SDS011;41331;45.412;10.992;2022-09-09T09:43:40;5.22;;;1.60;;
23432;SDS011;41331;45.412;10.992;2022-09-09T09:46:21;7.07;;;1.52;;
23432;SDS011;41331;45.412;10.992;2022-09-09T09:49:03;4.20;;;1.35;;
23432;SDS011;41331;45.412;10.992;2022-09-09T09:56:45;5.47;;;1.48;;
23432;SDS011;41331;45.412;10.992;2022-09-09T09:59:22;6.18;;;1.65;;
23432;SDS011;41331;45.412;10.992;2022-09-09T10:04:46;7.65;;;1.50;;
23432;SDS011;41331;45.412;10.992;2022-09-09T10:07:18;7.10;;;1.50;;
23432;SDS011;41331;45.412;10.992;2022-09-09T10:09:52;9.25;;;1.98;;
23432;SDS011;41331;45.412;10.992;2022-09-09T10:21:01;5.75;;;1.40;;
23432;SDS011;41331;45.412;10.992;2022-09-09T10:24:02;8.13;;;2.10;;
23432;SDS011;41331;45.412;10.992;2022-09-09T10:35:08;5.15;;;1.50;;
23432;SDS011;41331;45.412;10.992;2022-09-09T10:40:33;6.72;;;1.60;;
23432;SDS011;41331;45.412;10.992;2022-09-09T10:48:25;5.32;;;1.10;;
23432;SDS011;41331;45.412;10.992;2022-09-09T10:51:45;4.40;;;1.20;;
23432;SDS011;41331;45.412;10.992;2022-09-09T10:53:50;5.38;;;1.50;;
23432;SDS011;41331;45.412;10.992;2022-09-09T10:56:26;4.95;;;1.70;;
23432;SDS011;41331;45.412;10.992;2022-09-09T10:59:04;4.57;;;1.30;;
23432;SDS011;41331;45.412;10.992;2022-09-09T11:01:52;6.50;;;1.58;;
23432;SDS011;41331;45.412;10.992;2022-09-09T11:07:34;7.28;;;1.38;;
23432;SDS011;41331;45.412;10.992;2022-09-09T11:10:11;3.30;;;1.05;;
23432;SDS011;41331;45.412;10.992;2022-09-09T11:13:02;2.60;;;0.80;;
23432;SDS011;41331;45.412;10.992;2022-09-09T11:15:38;3.72;;;1.00;;
23432;SDS011;41331;45.412;10.992;2022-09-09T11:18:14;4.95;;;1.27;;
23432;SDS011;41331;45.412;10.992;2022-09-09T11:20:49;3.42;;;1.15;;
23432;SDS011;41331;45.412;10.992;2022-09-09T11:23:24;4.25;;;1.08;;
23432;SDS011;41331;45.412;10.992;2022-09-09T11:25:59;3.13;;;1.08;;
23432;SDS011;41331;45.412;10.992;2022-09-09T11:28:45;3.10;;;1.00;;
23432;SDS011;41331;45.412;10.992;2022-09-09T11:42:46;3.75;;;1.23;;
23432;SDS011;41331;45.412;10.992;2022-09-09T11:45:24;5.15;;;0.90;;
23432;SDS011;41331;45.412;10.992;2022-09-09T11:47:58;1.95;;;0.80;;
23432;SDS011;41331;45.412;10.992;2022-09-09T11:50:36;3.38;;;0.80;;
23432;SDS011;41331;45.412;10.992;2022-09-09T11:56:03;3.35;;;0.70;;
23432;SDS011;41331;45.412;10.992;2022-09-09T11:58:41;2.35;;;0.85;;
23432;SDS011;41331;45.412;10.992;2022-09-09T12:04:04;2.63;;;0.98;;
23432;SDS011;41331;45.412;10.992;2022-09-09T12:06:43;2.38;;;0.90;;
23432;SDS011;41331;45.412;10.992;2022-09-09T12:09:22;2.67;;;0.77;;
23432;SDS011;41331;45.412;10.992;2022-09-09T12:17:30;3.20;;;0.88;;
23432;SDS011;41331;45.412;10.992;2022-09-09T12:28:18;3.97;;;0.90;;
23432;SDS011;41331;45.412;10.992;2022-09-09T12:31:00;2.33;;;0.80;;
23432;SDS011;41331;45.412;10.992;2022-09-09T12:33:45;2.45;;;0.60;;
23432;SDS011;41331;45.412;10.992;2022-09-09T12:36:15;3.90;;;0.80;;
23432;SDS011;41331;45.412;10.992;2022-09-09T12:38:46;2.08;;;0.68;;
23432;SDS011;41331;45.412;10.992;2022-09-09T12:43:50;4.03;;;0.80;;
23432;SDS011;41331;45.412;10.992;2022-09-09T12:46:30;1.00;;;0.50;;
23432;SDS011;41331;45.412;10.992;2022-09-09T12:49:03;3.05;;;0.50;;
23432;SDS011;41331;45.412;10.992;2022-09-09T12:51:31;1.63;;;0.40;;
23432;SDS011;41331;45.412;10.992;2022-09-09T12:54:00;1.42;;;0.38;;
23432;SDS011;41331;45.412;10.992;2022-09-09T12:56:28;2.22;;;0.50;;
23432;SDS011;41331;45.412;10.992;2022-09-09T12:58:58;1.80;;;0.50;;
23432;SDS011;41331;45.412;10.992;2022-09-09T13:01:28;4.32;;;0.60;;
23432;SDS011;41331;45.412;10.992;2022-09-09T13:03:58;1.92;;;0.60;;
23432;SDS011;41331;45.412;10.992;2022-09-09T13:06:27;3.35;;;0.60;;
23432;SDS011;41331;45.412;10.992;2022-09-09T13:08:56;1.55;;;0.40;;
23432;SDS011;41331;45.412;10.992;2022-09-09T13:11:28;2.88;;;0.60;;
23432;SDS011;41331;45.412;10.992;2022-09-09T13:13:59;1.63;;;0.50;;
23432;SDS011;41331;45.412;10.992;2022-09-09T13:16:29;2.53;;;0.60;;
23432;SDS011;41331;45.412;10.992;2022-09-09T13:19:13;5.78;;;0.70;;
23432;SDS011;41331;45.412;10.992;2022-09-09T13:21:42;2.95;;;0.50;;
23432;SDS011;41331;45.412;10.992;2022-09-09T13:24:31;2.95;;;0.68;;
23432;SDS011;41331;45.412;10.992;2022-09-09T13:27:19;2.58;;;0.65;;
23432;SDS011;41331;45.412;10.992;2022-09-09T13:29:53;2.53;;;0.63;;
23432;SDS011;41331;45.412;10.992;2022-09-09T13:32:23;3.17;;;0.70;;
23432;SDS011;41331;45.412;10.992;2022-09-09T13:34:58;2.10;;;0.63;;
23432;SDS011;41331;45.412;10.992;2022-09-09T13:37:34;2.03;;;0.65;;
23432;SDS011;41331;45.412;10.992;2022-09-09T13:40:14;4.13;;;1.00;;
23432;SDS011;41331;45.412;10.992;2022-09-09T13:42:45;4.00;;;0.98;;
23432;SDS011;41331;45.412;10.992;2022-09-09T13:45:17;5.43;;;0.85;;
23432;SDS011;41331;45.412;10.992;2022-09-09T13:47:49;2.95;;;0.80;;
23432;SDS011;41331;45.412;10.992;2022-09-09T13:50:23;5.05;;;1.00;;
23432;SDS011;41331;45.412;10.992;2022-09-09T13:52:52;4.13;;;1.10;;
23432;SDS011;41331;45.412;10.992;2022-09-09T13:55:22;2.40;;;0.90;;
23432;SDS011;41331;45.412;10.992;2022-09-09T13:57:54;3.83;;;1.15;;
23432;SDS011;41331;45.412;10.992;2022-09-09T14:00:23;5.00;;;1.10;;
23432;SDS011;41331;45.412;10.992;2022-09-09T14:02:51;3.28;;;0.80;;
23432;SDS011;41331;45.412;10.992;2022-09-09T14:05:18;3.75;;;1.00;;
23432;SDS011;41331;45.412;10.992;2022-09-09T14:07:46;6.65;;;1.17;;
23432;SDS011;41331;45.412;10.992;2022-09-09T14:10:19;1.95;;;0.80;;
23432;SDS011;41331;45.412;10.992;2022-09-09T14:12:46;3.15;;;0.82;;
23432;SDS011;41331;45.412;10.992;2022-09-09T14:15:14;2.28;;;1.00;;
23432;SDS011;41331;45.412;10.992;2022-09-09T14:17:41;3.58;;;0.90;;
23432;SDS011;41331;45.412;10.992;2022-09-09T14:20:09;4.45;;;0.80;;
23432;SDS011;41331;45.412;10.992;2022-09-09T14:22:38;3.63;;;1.00;;
23432;SDS011;41331;45.412;10.992;2022-09-09T14:25:08;1.98;;;0.70;;
23432;SDS011;41331;45.412;10.992;2022-09-09T14:27:35;3.78;;;1.08;;
23432;SDS011;41331;45.412;10.992;2022-09-09T14:30:03;2.42;;;0.70;;
23432;SDS011;41331;45.412;10.992;2022-09-09T14:32:31;1.58;;;0.68;;
23432;SDS011;41331;45.412;10.992;2022-09-09T14:34:59;3.83;;;1.10;;
23432;SDS011;41331;45.412;10.992;2022-09-09T14:37:28;2.50;;;0.90;;
23432;SDS011;41331;45.412;10.992;2022-09-09T14:39:57;3.88;;;0.85;;
23432;SDS011;41331;45.412;10.992;2022-09-09T14:42:25;1.63;;;0.60;;
23432;SDS011;41331;45.412;10.992;2022-09-09T14:44:53;2.05;;;0.80;;
23432;SDS011;41331;45.412;10.992;2022-09-09T14:47:20;3.47;;;0.60;;
23432;SDS011;41331;45.412;10.992;2022-09-09T14:49:48;3.72;;;0.80;;
23432;SDS011;41331;45.412;10.992;2022-09-09T14:52:16;2.25;;;0.88;;
23432;SDS011;41331;45.412;10.992;2022-09-09T14:54:44;2.10;;;0.90;;
23432;SDS011;41331;45.412;10.992;2022-09-09T14:57:11;3.30;;;0.90;;
23432;SDS011;41331;45.412;10.992;2022-09-09T14:59:38;3.33;;;0.80;;
23432;SDS011;41331;45.412;10.992;2022-09-09T15:02:08;6.68;;;1.08;;
23432;SDS011;41331;45.412;10.992;2022-09-09T15:04:36;3.45;;;0.63;;
23432;SDS011;41331;45.412;10.992;2022-09-09T15:07:03;5.00;;;0.85;;
23432;SDS011;41331;45.412;10.992;2022-09-09T15:09:31;5.47;;;0.90;;
23432;SDS011;41331;45.412;10.992;2022-09-09T15:11:59;3.42;;;0.70;;
23432;SDS011;41331;45.412;10.992;2022-09-09T15:14:27;3.13;;;1.10;;
23432;SDS011;41331;45.412;10.992;2022-09-09T15:16:54;2.53;;;0.82;;
23432;SDS011;41331;45.412;10.992;2022-09-09T15:19:22;1.70;;;0.80;;
23432;SDS011;41331;45.412;10.992;2022-09-09T15:21:49;2.70;;;0.90;;
23432;SDS011;41331;45.412;10.992;2022-09-09T15:24:16;2.78;;;0.85;;
23432;SDS011;41331;45.412;10.992;2022-09-09T15:26:45;4.47;;;0.80;;
23432;SDS011;41331;45.412;10.992;2022-09-09T15:29:12;4.82;;;0.70;;
23432;SDS011;41331;45.412;10.992;2022-09-09T15:31:39;1.63;;;0.60;;
23432;SDS011;41331;45.412;10.992;2022-09-09T15:34:07;3.33;;;0.88;;
23432;SDS011;41331;45.412;10.992;2022-09-09T15:36:35;1.95;;;0.70;;
23432;SDS011;41331;45.412;10.992;2022-09-09T15:39:06;4.20;;;0.98;;
23432;SDS011;41331;45.412;10.992;2022-09-09T15:41:35;1.65;;;0.70;;
23432;SDS011;41331;45.412;10.992;2022-09-09T15:44:02;2.65;;;0.60;;
23432;SDS011;41331;45.412;10.992;2022-09-09T15:46:33;3.97;;;0.98;;
23432;SDS011;41331;45.412;10.992;2022-09-09T15:49:13;2.05;;;0.70;;
23432;SDS011;41331;45.412;10.992;2022-09-09T15:51:43;3.33;;;0.82;;
23432;SDS011;41331;45.412;10.992;2022-09-09T15:54:15;2.75;;;1.00;;
23432;SDS011;41331;45.412;10.992;2022-09-09T15:56:46;2.70;;;0.80;;
23432;SDS011;41331;45.412;10.992;2022-09-09T15:59:15;3.85;;;0.77;;
23432;SDS011;41331;45.412;10.992;2022-09-09T16:01:43;2.33;;;0.80;;
23432;SDS011;41331;45.412;10.992;2022-09-09T16:04:11;2.28;;;0.70;;
23432;SDS011;41331;45.412;10.992;2022-09-09T16:06:39;2.28;;;0.90;;
23432;SDS011;41331;45.412;10.992;2022-09-09T16:09:06;4.28;;;0.90;;
23432;SDS011;41331;45.412;10.992;2022-09-09T16:11:36;2.88;;;0.90;;
23432;SDS011;41331;45.412;10.992;2022-09-09T16:14:04;2.65;;;0.85;;
23432;SDS011;41331;45.412;10.992;2022-09-09T16:16:34;2.50;;;0.80;;
23432;SDS011;41331;45.412;10.992;2022-09-09T16:19:06;4.63;;;0.85;;
23432;SDS011;41331;45.412;10.992;2022-09-09T16:21:38;3.05;;;0.85;;
23432;SDS011;41331;45.412;10.992;2022-09-09T16:24:08;3.42;;;0.80;;
23432;SDS011;41331;45.412;10.992;2022-09-09T16:26:37;2.97;;;1.00;;
23432;SDS011;41331;45.412;10.992;2022-09-09T16:29:06;3.08;;;1.00;;
23432;SDS011;41331;45.412;10.992;2022-09-09T16:31:33;2.67;;;0.98;;
23432;SDS011;41331;45.412;10.992;2022-09-09T16:34:01;5.22;;;1.10;;
23432;SDS011;41331;45.412;10.992;2022-09-09T16:36:31;2.70;;;1.00;;
23432;SDS011;41331;45.412;10.992;2022-09-09T16:39:02;3.25;;;1.00;;
23432;SDS011;41331;45.412;10.992;2022-09-09T16:41:32;3.07;;;0.90;;
23432;SDS011;41331;45.412;10.992;2022-09-09T16:44:02;2.15;;;0.90;;
23432;SDS011;41331;45.412;10.992;2022-09-09T16:46:31;2.75;;;0.80;;
23432;SDS011;41331;45.412;10.992;2022-09-09T16:49:02;2.97;;;0.65;;
23432;SDS011;41331;45.412;10.992;2022-09-09T16:51:33;4.63;;;0.90;;
23432;SDS011;41331;45.412;10.992;2022-09-09T16:54:03;2.80;;;1.15;;
23432;SDS011;41331;45.412;10.992;2022-09-09T16:56:35;1.52;;;0.75;;
23432;SDS011;41331;45.412;10.992;2022-09-09T16:59:14;3.35;;;0.77;;
23432;SDS011;41331;45.412;10.992;2022-09-09T17:01:46;2.13;;;0.70;;
23432;SDS011;41331;45.412;10.992;2022-09-09T17:04:16;2.53;;;0.80;;
23432;SDS011;41331;45.412;10.992;2022-09-09T17:06:53;2.22;;;0.73;;
23432;SDS011;41331;45.412;10.992;2022-09-09T17:09:21;1.95;;;0.57;;
23432;SDS011;41331;45.412;10.992;2022-09-09T17:11:52;2.38;;;0.70;;
23432;SDS011;41331;45.412;10.992;2022-09-09T17:14:21;2.13;;;0.85;;